New Berlin, IL (62670)

9:39 AM CDT on March 28, 2015 (GMT -0500)
Smith Farms | | Change Station
CLOSE
Current Station
Personal Weather Station
Location: New Berlin, IL
Elevation: 656 ft
Nearby Weather Stations

Elev 656 ft 39.72 °N, 89.92 °W | Updated 11 minutes ago

Partly Cloudy
Partly Cloudy
32.0 °F
Feels Like 32 °F
N
0.0
Wind Variable Wind from ESE

Today
High -- | Low -- °F
--% Chance of Precip.
Yesterday
High -- | Low -- °F
Precip. -- in
6:50 AM 7:19 PM
Waxing Gibbous, 63% visible
Pressure 30.35 in
Visibility 10.0 miles
Clouds Clear
Windchill 32 °F
Dew Point 19 °F
Humidity 59%
Rainfall 0.00 in
Snow Depth Not available.
UV 2 out of 12
Pollen 4.30 out of 12
Air Quality Not available.
Flu Activity Not available.
METAR KSPI 281352Z 12005KT 10SM CLR M02/M09 A3033 RMK AO2 SLP278 T10171089

More Conditions Fewer Conditions

Pressure 30.35 in
Visibility 10.0 miles
Clouds Clear
Windchill 32 °F
Dew Point 19 °F
Humidity 59%
Rainfall 0.00 in
Snow Depth Not available.
UV 2 out of 12
Pollen 4.30 out of 12
Air Quality Not available.
Flu Activity Not available.
METAR KSPI 281352Z 12005KT 10SM CLR M02/M09 A3033 RMK AO2 SLP278 T10171089

More Conditions Fewer Conditions

10-Day Weather Forecast

Almanac

Astronomy

Mar. 28, 2015 Rise Set
Actual Time
Civil Twilight
Nautical Twilight
Astronomical Twilight
Moon
Length of Visible Light
Length of Day
Tomorrow will be .
, % of the Moon is Illuminated

Today's Extremes

State Highs State Lows

Community

WunderPhotos

Upload Photos

1,808,986 photos uploaded!

WunderBlogs® & News

Nearby

Air Quality

  Air Quality AQ Index Pollutant
Not available.

Snow Depth

Station Depth Elevation

Earthquake Activity

City Distance Mag. Time & Date
Minimum magnitude displayed is 2.5.

Coastal Water Temperatures

Place Temperature

Stations

Nearby Weather Stations

Station Location Temp. Windchill Dew Point Humidity Wind Precip. Elev Updated Type